Time;durP1;ratioP1;P1;durP2;ratioP2;P2;SDS_P1;SDS_P2;PMS_P1;PMS_P2;Temp;Humidity;BMP_temperature;BMP_pressure;BME280_temperature;BME280_humidity;BME280_pressure;Samples;Min_cycle;Max_cycle;Signal;HPM_P1;HPM_P2
2023/01/20 00:01:23;;;;;;;16.42;8.40;;;1.80;99.90;;;;;;5051568;28;20171;-46
2023/01/20 00:03:50;;;;;;;14.13;8.77;;;1.70;99.90;;;;;;5051385;28;20210;-46
2023/01/20 00:06:16;;;;;;;14.65;9.32;;;1.80;99.90;;;;;;5051511;28;20194;-46
2023/01/20 00:08:42;;;;;;;16.30;9.10;;;1.70;99.90;;;;;;5051569;28;20209;-46
2023/01/20 00:11:10;;;;;;;15.60;8.80;;;1.70;99.90;;;;;;5051439;28;20167;-45
2023/01/20 00:13:36;;;;;;;14.95;7.65;;;1.70;99.90;;;;;;5051805;28;20166;-46
2023/01/20 00:16:02;;;;;;;14.63;7.13;;;1.80;99.90;;;;;;5051966;28;20254;-45
2023/01/20 00:18:28;;;;;;;16.25;8.27;;;1.70;99.90;;;;;;5051628;28;20677;-46
2023/01/20 00:20:54;;;;;;;13.63;8.00;;;1.70;99.90;;;;;;5051380;28;20261;-45
2023/01/20 00:23:20;;;;;;;15.90;8.05;;;1.80;99.90;;;;;;5051396;28;20202;-46
2023/01/20 00:25:45;;;;;;;18.20;9.05;;;1.90;99.90;;;;;;5051311;28;20163;-46
2023/01/20 00:28:11;;;;;;;18.27;8.18;;;1.80;99.90;;;;;;5051541;28;20163;-45
2023/01/20 00:30:36;;;;;;;15.15;8.65;;;1.90;99.90;;;;;;5065300;28;20571;-46
2023/01/20 00:33:02;;;;;;;14.35;8.10;;;1.80;99.90;;;;;;5070821;28;20272;-46
2023/01/20 00:35:27;;;;;;;16.50;9.02;;;2.00;99.90;;;;;;5070951;28;20540;-46
2023/01/20 00:37:53;;;;;;;13.68;8.50;;;1.90;99.90;;;;;;5070595;28;20213;-46
2023/01/20 00:40:19;;;;;;;13.35;8.40;;;2.00;99.90;;;;;;5070766;28;20173;-46
2023/01/20 00:42:44;;;;;;;14.57;9.15;;;2.00;99.90;;;;;;5070932;28;20174;-45
2023/01/20 00:45:10;;;;;;;17.55;9.60;;;2.00;99.90;;;;;;5070629;28;20166;-46
2023/01/20 00:47:36;;;;;;;18.27;8.63;;;1.90;99.90;;;;;;5070531;28;20657;-46
2023/01/20 00:50:01;;;;;;;17.42;9.20;;;2.00;99.90;;;;;;5071116;28;20166;-46
2023/01/20 00:52:27;;;;;;;16.17;8.63;;;2.00;99.90;;;;;;5073913;28;20577;-45
2023/01/20 00:54:52;;;;;;;16.05;8.65;;;2.00;99.90;;;;;;5074159;28;20219;-45
2023/01/20 00:57:18;;;;;;;13.70;8.25;;;2.00;99.90;;;;;;5074257;28;20214;-47
2023/01/20 00:59:43;;;;;;;15.75;8.43;;;2.00;99.90;;;;;;5066856;28;20166;-46
2023/01/20 01:02:09;;;;;;;19.45;9.00;;;2.00;99.90;;;;;;5063615;28;20178;-45
2023/01/20 01:04:34;;;;;;;16.17;8.88;;;2.00;99.90;;;;;;5074171;28;20230;-45
2023/01/20 01:07:00;;;;;;;15.85;9.13;;;1.90;99.90;;;;;;5073961;28;20159;-46
2023/01/20 01:09:26;;;;;;;16.35;8.80;;;2.00;99.90;;;;;;5073711;28;20253;-45
2023/01/20 01:12:06;;;;;;;22.63;9.82;;;2.00;99.90;;;;;;5051279;28;20193;-45
2023/01/20 01:14:32;;;;;;;16.02;9.15;;;2.00;99.90;;;;;;5074131;28;20176;-45
2023/01/20 01:16:57;;;;;;;16.65;9.18;;;2.00;99.90;;;;;;5073960;28;20205;-45
2023/01/20 01:19:23;;;;;;;19.10;9.85;;;2.00;99.90;;;;;;5073692;28;20249;-46
2023/01/20 01:21:49;;;;;;;17.27;9.73;;;2.00;99.90;;;;;;5072513;28;20178;-45
2023/01/20 01:24:14;;;;;;;15.73;9.68;;;2.00;99.90;;;;;;5073809;28;20166;-46
2023/01/20 01:26:40;;;;;;;17.17;9.32;;;2.00;99.90;;;;;;5054626;28;20201;-46
2023/01/20 01:29:05;;;;;;;19.73;10.77;;;2.00;99.90;;;;;;5054033;28;20166;-46
2023/01/20 01:31:31;;;;;;;17.27;9.52;;;2.00;99.90;;;;;;5053879;28;20241;-45
2023/01/20 01:33:56;;;;;;;16.75;9.95;;;2.00;99.90;;;;;;5053579;28;20538;-46
2023/01/20 01:36:22;;;;;;;17.73;9.32;;;2.00;99.90;;;;;;5053337;28;20163;-45
2023/01/20 01:38:47;;;;;;;19.90;11.18;;;1.90;99.90;;;;;;5053646;28;20185;-45
2023/01/20 01:41:15;;;;;;;15.95;8.57;;;2.00;99.90;;;;;;5053615;28;20198;-46
2023/01/20 01:43:59;;;;;;;16.10;10.63;;;1.90;99.90;;;;;;5053425;28;20177;-46
2023/01/20 01:46:24;;;;;;;17.48;10.30;;;2.00;99.90;;;;;;5053406;28;20529;-46
2023/01/20 01:48:50;;;;;;;16.88;9.90;;;1.80;99.90;;;;;;5053133;28;20170;-47
2023/01/20 01:51:24;;;;;;;16.17;9.55;;;1.90;99.90;;;;;;5053177;28;20167;-46
2023/01/20 01:53:58;;;;;;;18.80;10.32;;;1.90;99.90;;;;;;5053007;28;20584;-46
2023/01/20 01:56:26;;;;;;;21.75;10.85;;;1.90;99.90;;;;;;5054119;28;20228;-46
2023/01/20 01:58:54;;;;;;;17.52;10.27;;;1.80;99.90;;;;;;5053215;28;20178;-46
2023/01/20 02:01:20;;;;;;;19.25;10.45;;;1.90;99.90;;;;;;5053085;28;20167;-46
2023/01/20 02:04:07;;;;;;;17.70;10.15;;;1.90;99.90;;;;;;5051753;28;20218;-46
2023/01/20 02:06:37;;;;;;;18.85;10.55;;;1.90;99.90;;;;;;5053230;28;20185;-46
2023/01/20 02:09:04;;;;;;;17.98;10.25;;;2.00;99.90;;;;;;5053371;28;20162;-46
2023/01/20 02:11:34;;;;;;;17.45;10.38;;;1.90;99.90;;;;;;5052807;28;20170;-46
2023/01/20 02:13:59;;;;;;;18.40;10.50;;;2.00;99.90;;;;;;5052795;28;20653;-46
2023/01/20 02:16:43;;;;;;;19.13;11.02;;;2.00;99.90;;;;;;5052511;28;20170;-46
2023/01/20 02:19:35;;;;;;;19.42;9.73;;;2.00;99.90;;;;;;5052574;28;20178;-45
2023/01/20 02:22:15;;;;;;;16.77;9.02;;;1.90;99.90;;;;;;5042185;28;20178;-48
2023/01/20 02:24:59;;;;;;;17.00;9.68;;;1.90;99.90;;;;;;5053212;28;20163;-46
2023/01/20 02:27:58;;;;;;;18.10;10.13;;;1.90;99.90;;;;;;5072334;28;20241;-46
2023/01/20 02:31:01;;;;;;;16.15;8.93;;;1.90;99.90;;;;;;5072466;28;20169;-45
2023/01/20 02:33:37;;;;;;;19.25;10.63;;;2.00;99.90;;;;;;5072006;28;20233;-46
2023/01/20 02:36:08;;;;;;;20.20;9.90;;;2.00;99.90;;;;;;5072597;28;20227;-46
2023/01/20 02:39:04;;;;;;;18.75;9.63;;;2.00;99.90;;;;;;5072567;28;20198;-45
2023/01/20 02:41:35;;;;;;;20.63;10.95;;;2.00;99.90;;;;;;5072501;28;20211;-46
2023/01/20 02:44:21;;;;;;;19.05;10.73;;;2.10;99.90;;;;;;5072416;28;20524;-46
2023/01/20 02:46:57;;;;;;;18.38;10.73;;;2.10;99.90;;;;;;5072077;28;20177;-46
2023/01/20 02:49:31;;;;;;;20.45;10.95;;;2.00;99.90;;;;;;5071992;28;20645;-46
2023/01/20 02:52:13;;;;;;;21.80;11.43;;;2.10;99.90;;;;;;5071939;28;20170;-46
2023/01/20 02:54:42;;;;;;;21.77;9.10;;;2.00;99.90;;;;;;5071000;28;20170;-45
2023/01/20 02:57:11;;;;;;;21.83;10.95;;;2.10;99.90;;;;;;5056485;28;20190;-45
2023/01/20 02:59:43;;;;;;;21.85;12.15;;;2.10;99.90;;;;;;5071776;28;20791;-45
2023/01/20 03:02:19;;;;;;;24.88;11.88;;;2.00;99.90;;;;;;5070541;28;20379;-45
2023/01/20 03:05:04;;;;;;;19.60;11.77;;;2.00;99.90;;;;;;5071632;28;20302;-45
2023/01/20 03:07:31;;;;;;;21.33;12.38;;;2.20;99.90;;;;;;5071652;28;20194;-45
2023/01/20 03:10:02;;;;;;;20.17;11.15;;;2.10;99.90;;;;;;5071666;28;20189;-45
2023/01/20 03:12:38;;;;;;;21.75;11.82;;;2.10;99.90;;;;;;5071646;28;20173;-45
2023/01/20 03:15:04;;;;;;;24.00;12.10;;;2.00;99.90;;;;;;5071706;28;20689;-45
2023/01/20 03:17:31;;;;;;;20.73;12.43;;;2.10;99.90;;;;;;5071861;28;20210;-45
2023/01/20 03:19:56;;;;;;;21.90;13.00;;;2.10;99.90;;;;;;5071476;28;20170;-45
2023/01/20 03:22:22;;;;;;;19.75;10.32;;;2.00;99.90;;;;;;5071553;28;20173;-45
2023/01/20 03:24:48;;;;;;;21.35;10.02;;;2.00;99.90;;;;;;5071401;28;20158;-46
2023/01/20 03:27:14;;;;;;;20.98;11.32;;;1.90;99.90;;;;;;5058693;28;20545;-45
2023/01/20 03:29:39;;;;;;;17.58;10.52;;;2.00;99.90;;;;;;5051648;28;20532;-46
2023/01/20 03:32:07;;;;;;;20.52;10.80;;;2.00;99.90;;;;;;5051349;28;20535;-46
2023/01/20 03:34:36;;;;;;;27.45;12.00;;;2.00;99.90;;;;;;5051711;28;20507;-46
2023/01/20 03:37:03;;;;;;;17.80;10.98;;;2.00;99.90;;;;;;5051532;28;20315;-46
2023/01/20 03:39:29;;;;;;;20.83;12.40;;;2.10;99.90;;;;;;5051352;28;20178;-45
2023/01/20 03:42:15;;;;;;;18.15;10.88;;;2.00;99.90;;;;;;5051267;28;20717;-45
2023/01/20 03:44:52;;;;;;;20.85;11.50;;;2.00;99.90;;;;;;5051539;28;20212;-45
2023/01/20 03:47:47;;;;;;;19.60;11.30;;;2.00;99.90;;;;;;5051198;28;20247;-46
2023/01/20 03:50:34;;;;;;;25.45;12.00;;;1.90;99.90;;;;;;5051331;28;20175;-46
2023/01/20 03:53:32;;;;;;;20.55;11.27;;;1.80;99.90;;;;;;5051156;28;20171;-45
2023/01/20 03:56:19;;;;;;;19.30;11.95;;;1.80;99.90;;;;;;5052719;28;20169;-49
2023/01/20 03:58:49;;;;;;;23.20;12.57;;;1.90;99.90;;;;;;5071216;28;20181;-49
2023/01/20 04:01:18;;;;;;;22.67;11.75;;;1.90;99.90;;;;;;5071183;28;20166;-49
2023/01/20 04:03:46;;;;;;;24.85;12.63;;;1.90;99.90;;;;;;5070918;28;20309;-49
2023/01/20 04:06:16;;;;;;;23.02;12.27;;;1.80;99.90;;;;;;5071286;28;20216;-48
2023/01/20 04:08:52;;;;;;;22.42;12.20;;;1.90;99.90;;;;;;5071618;28;20162;-47
2023/01/20 04:11:18;;;;;;;22.50;11.88;;;1.90;99.90;;;;;;5070703;28;20173;-48
2023/01/20 04:13:44;;;;;;;21.50;12.40;;;1.80;99.90;;;;;;5071666;28;20175;-48
2023/01/20 04:16:14;;;;;;;21.20;12.82;;;1.70;99.90;;;;;;5071421;28;20166;-47
2023/01/20 04:18:42;;;;;;;22.88;10.90;;;1.70;99.90;;;;;;5071393;28;20300;-46
2023/01/20 04:21:15;;;;;;;23.42;12.02;;;1.70;99.90;;;;;;5071331;28;20644;-48
2023/01/20 04:23:57;;;;;;;21.25;10.63;;;1.80;99.90;;;;;;5071490;28;20178;-48
2023/01/20 04:26:23;;;;;;;18.05;11.20;;;1.70;99.90;;;;;;5072065;28;20592;-46
2023/01/20 04:28:49;;;;;;;20.67;11.65;;;1.70;99.90;;;;;;5074717;28;20297;-48
2023/01/20 04:31:14;;;;;;;23.45;10.75;;;1.70;99.90;;;;;;5075234;28;20207;-48
2023/01/20 04:33:40;;;;;;;21.90;11.20;;;1.70;99.90;;;;;;5075198;28;20169;-46
2023/01/20 04:36:06;;;;;;;21.40;12.07;;;1.70;99.90;;;;;;5075534;28;20170;-46
2023/01/20 04:38:32;;;;;;;24.88;13.38;;;1.60;99.90;;;;;;5074052;28;20292;-47
2023/01/20 04:40:57;;;;;;;21.88;11.40;;;1.50;99.90;;;;;;5075284;28;20158;-46
2023/01/20 04:43:23;;;;;;;21.55;10.98;;;1.60;99.90;;;;;;5074958;28;20184;-46
2023/01/20 04:45:49;;;;;;;21.80;11.52;;;1.60;99.90;;;;;;5074900;28;20640;-47
2023/01/20 04:48:14;;;;;;;22.08;12.40;;;1.60;99.90;;;;;;5074901;28;20533;-46
2023/01/20 04:50:40;;;;;;;22.67;10.88;;;1.50;99.90;;;;;;5074846;28;20633;-46
2023/01/20 04:53:06;;;;;;;20.08;10.30;;;1.50;99.90;;;;;;5074941;28;20575;-45
2023/01/20 04:55:32;;;;;;;19.90;10.40;;;1.60;99.90;;;;;;5074644;28;20618;-45
2023/01/20 04:57:58;;;;;;;22.63;11.63;;;1.60;99.90;;;;;;5054603;28;20209;-45
2023/01/20 05:00:23;;;;;;;21.58;11.50;;;1.70;99.90;;;;;;5054646;28;20175;-45
2023/01/20 05:02:49;;;;;;;21.58;12.05;;;1.70;99.90;;;;;;5054581;28;20174;-46
2023/01/20 05:05:15;;;;;;;19.50;11.38;;;1.70;99.90;;;;;;5054698;28;20206;-45
2023/01/20 05:07:40;;;;;;;18.52;8.63;;;1.60;99.90;;;;;;5053214;28;20538;-45
2023/01/20 05:10:07;;;;;;;14.88;7.60;;;1.60;99.90;;;;;;5054450;28;20181;-46
2023/01/20 05:12:32;;;;;;;22.23;9.80;;;1.70;99.90;;;;;;5053485;28;20660;-46
2023/01/20 05:14:58;;;;;;;18.85;11.85;;;1.70;99.90;;;;;;5054618;28;20177;-46
2023/01/20 05:17:23;;;;;;;22.23;11.05;;;1.70;99.90;;;;;;5054264;28;20624;-46
2023/01/20 05:19:49;;;;;;;20.95;10.48;;;1.60;99.90;;;;;;5054295;28;20662;-46
2023/01/20 05:22:14;;;;;;;16.42;9.60;;;1.60;99.90;;;;;;5054196;28;20199;-45
2023/01/20 05:24:40;;;;;;;17.45;10.50;;;1.70;99.90;;;;;;5054142;28;20195;-45
2023/01/20 05:27:06;;;;;;;21.13;10.77;;;1.70;99.90;;;;;;5066859;28;20223;-45
2023/01/20 05:29:31;;;;;;;15.13;8.63;;;1.60;99.90;;;;;;5074096;28;20185;-45
2023/01/20 05:31:57;;;;;;;19.95;9.43;;;1.60;99.90;;;;;;5074019;28;20235;-45
2023/01/20 05:34:23;;;;;;;19.17;10.75;;;1.70;99.90;;;;;;5073994;28;20176;-46
2023/01/20 05:36:52;;;;;;;22.70;11.30;;;1.70;99.90;;;;;;5074021;28;20551;-46
2023/01/20 05:39:19;;;;;;;17.15;11.10;;;1.70;99.90;;;;;;5074159;28;20188;-46
2023/01/20 05:41:45;;;;;;;23.45;9.80;;;1.80;99.90;;;;;;5074089;28;20174;-47
2023/01/20 05:44:14;;;;;;;15.77;9.00;;;1.60;99.90;;;;;;5073831;28;20181;-45
2023/01/20 05:46:39;;;;;;;20.48;9.60;;;1.70;99.90;;;;;;5073831;28;20166;-45
2023/01/20 05:49:05;;;;;;;16.55;10.32;;;1.60;99.90;;;;;;5073695;28;20169;-46
2023/01/20 05:51:31;;;;;;;16.17;9.13;;;1.70;99.90;;;;;;5073863;28;20914;-46
2023/01/20 05:53:56;;;;;;;18.42;10.68;;;1.80;99.90;;;;;;5073434;28;20201;-46
2023/01/20 05:56:22;;;;;;;22.13;10.68;;;1.70;99.90;;;;;;5063891;28;20170;-46
2023/01/20 05:58:47;;;;;;;18.35;9.52;;;1.80;99.90;;;;;;5065651;28;20228;-46
2023/01/20 06:01:13;;;;;;;23.90;10.07;;;1.70;99.90;;;;;;5072939;28;20162;-46
2023/01/20 06:03:39;;;;;;;19.80;11.13;;;1.80;99.90;;;;;;5072833;28;20292;-46
2023/01/20 06:06:07;;;;;;;19.27;10.63;;;1.90;99.90;;;;;;5073096;28;20170;-46
2023/01/20 06:08:34;;;;;;;20.42;10.18;;;1.80;99.90;;;;;;5073190;28;20158;-47
2023/01/20 06:10:59;;;;;;;18.73;9.93;;;0.90;99.90;;;;;;5073258;28;20170;-46
2023/01/20 06:13:25;;;;;;;18.00;9.70;;;1.90;99.90;;;;;;5072669;28;20173;-46
2023/01/20 06:15:54;;;;;;;19.42;11.15;;;1.80;99.90;;;;;;5072706;28;20170;-46
2023/01/20 06:18:21;;;;;;;20.40;10.07;;;1.80;99.90;;;;;;5072534;28;20219;-46
2023/01/20 06:20:47;;;;;;;24.88;10.27;;;1.80;99.90;;;;;;5072624;28;20177;-46
2023/01/20 06:23:13;;;;;;;20.48;10.65;;;1.90;99.90;;;;;;5072448;28;20223;-46
2023/01/20 06:25:38;;;;;;;23.67;11.48;;;1.90;99.90;;;;;;5072442;28;20166;-46
2023/01/20 06:28:04;;;;;;;18.98;11.10;;;1.90;99.90;;;;;;5065176;28;20174;-46
2023/01/20 06:30:29;;;;;;;17.70;10.27;;;2.00;99.90;;;;;;5052751;28;20167;-46
2023/01/20 06:32:56;;;;;;;17.77;10.68;;;2.00;99.90;;;;;;5050823;28;20186;-46
2023/01/20 06:35:22;;;;;;;21.65;10.85;;;2.00;99.90;;;;;;5052121;28;20171;-46
2023/01/20 06:37:48;;;;;;;20.45;11.32;;;1.90;99.90;;;;;;5050775;28;20566;-46
2023/01/20 06:40:14;;;;;;;20.73;10.07;;;1.90;99.90;;;;;;5052118;28;20167;-46
2023/01/20 06:42:40;;;;;;;24.58;11.70;;;1.90;99.90;;;;;;5052005;28;20174;-46
2023/01/20 06:45:06;;;;;;;23.05;11.23;;;1.80;99.90;;;;;;5051895;28;20158;-46
2023/01/20 06:47:31;;;;;;;18.02;11.55;;;1.90;99.90;;;;;;5052429;28;20249;-46
2023/01/20 06:49:57;;;;;;;19.67;10.18;;;1.80;99.90;;;;;;5051406;28;20258;-46
2023/01/20 06:52:22;;;;;;;22.27;10.80;;;1.90;99.90;;;;;;5051934;28;20167;-46
2023/01/20 06:54:48;;;;;;;24.02;11.95;;;1.90;99.90;;;;;;5051813;28;20166;-46
2023/01/20 06:57:13;;;;;;;24.15;12.68;;;1.80;99.90;;;;;;5069777;28;20204;-46
2023/01/20 06:59:39;;;;;;;21.85;11.73;;;1.90;99.90;;;;;;5071793;28;20579;-46
2023/01/20 07:02:05;;;;;;;20.05;11.00;;;1.90;99.90;;;;;;5071809;28;20168;-46
2023/01/20 07:04:30;;;;;;;20.38;11.40;;;2.00;99.90;;;;;;5071750;28;20244;-45
2023/01/20 07:06:56;;;;;;;17.48;11.32;;;2.00;99.90;;;;;;5071893;28;20182;-46
2023/01/20 07:09:21;;;;;;;18.98;10.48;;;2.10;99.90;;;;;;5071652;28;20166;-45
2023/01/20 07:11:47;;;;;;;18.80;11.52;;;2.10;99.90;;;;;;5071478;28;20252;-46
2023/01/20 07:14:13;;;;;;;19.20;11.10;;;2.00;99.90;;;;;;5071680;28;20375;-45
2023/01/20 07:16:38;;;;;;;21.20;12.13;;;2.00;99.90;;;;;;5071707;28;20201;-46
2023/01/20 07:19:04;;;;;;;26.48;13.38;;;2.10;99.90;;;;;;5071605;28;20172;-46
2023/01/20 07:21:29;;;;;;;18.10;11.07;;;2.10;99.90;;;;;;5071848;28;20170;-46
2023/01/20 07:23:58;;;;;;;22.92;12.05;;;2.10;99.90;;;;;;5070270;28;20196;-46
2023/01/20 07:26:25;;;;;;;23.55;11.98;;;2.10;99.90;;;;;;5059800;28;20251;-46
2023/01/20 07:28:51;;;;;;;21.77;10.82;;;2.10;99.90;;;;;;5051519;28;20251;-46
2023/01/20 07:31:22;;;;;;;18.85;11.07;;;2.10;99.90;;;;;;5063553;28;20248;-48
2023/01/20 07:33:48;;;;;;;21.88;11.35;;;2.00;99.90;;;;;;5051849;28;20186;-49
2023/01/20 07:36:15;;;;;;;19.30;11.32;;;2.00;99.90;;;;;;5052636;28;20175;-49
2023/01/20 07:38:41;;;;;;;19.48;11.80;;;2.00;99.90;;;;;;5071433;28;20672;-48
2023/01/20 07:41:10;;;;;;;18.80;11.45;;;2.10;99.90;;;;;;5071255;28;20166;-48
2023/01/20 07:43:36;;;;;;;19.88;10.90;;;2.00;99.90;;;;;;5071214;28;20177;-48
2023/01/20 07:46:03;;;;;;;20.45;11.65;;;2.00;99.90;;;;;;5071744;28;20192;-47
2023/01/20 07:48:31;;;;;;;17.95;11.48;;;2.10;99.90;;;;;;5071536;28;20166;-49
2023/01/20 07:51:05;;;;;;;20.10;11.68;;;2.10;99.90;;;;;;5071199;28;20166;-48
2023/01/20 07:53:31;;;;;;;19.33;11.70;;;2.10;99.90;;;;;;5071532;28;20240;-48
2023/01/20 07:56:09;;;;;;;17.95;10.52;;;2.20;99.90;;;;;;5070236;28;20231;-49
2023/01/20 07:58:35;;;;;;;16.63;10.48;;;2.10;99.90;;;;;;5070258;28;20582;-48
2023/01/20 08:01:33;;;;;;;20.83;11.40;;;2.10;99.90;;;;;;5052623;28;20162;-46
2023/01/20 08:03:59;;;;;;;16.92;11.18;;;2.10;99.90;;;;;;5021987;28;20249;-45
2023/01/20 08:06:28;;;;;;;22.23;10.57;;;2.10;99.90;;;;;;5055006;28;20181;-48
2023/01/20 08:08:55;;;;;;;18.80;10.55;;;2.00;99.90;;;;;;5055096;28;20174;-45
2023/01/20 08:11:21;;;;;;;18.13;11.20;;;2.00;99.90;;;;;;5055038;28;20167;-46
2023/01/20 08:13:47;;;;;;;22.38;11.13;;;2.00;99.90;;;;;;5054986;28;20167;-47
2023/01/20 08:16:15;;;;;;;22.92;11.70;;;2.20;99.90;;;;;;5055048;28;20653;-46
2023/01/20 08:18:41;;;;;;;22.80;12.77;;;2.20;99.90;;;;;;5054799;28;20204;-45
2023/01/20 08:21:15;;;;;;;24.73;12.15;;;2.20;99.90;;;;;;5061691;28;20215;-45
2023/01/20 08:23:40;;;;;;;22.48;12.10;;;2.30;99.90;;;;;;5074474;28;20645;-45
2023/01/20 08:26:06;;;;;;;17.80;11.55;;;2.20;99.90;;;;;;5074717;28;20256;-45
2023/01/20 08:28:34;;;;;;;18.10;11.65;;;2.30;99.90;;;;;;5075003;28;20245;-45
2023/01/20 08:31:17;;;;;;;17.42;11.82;;;2.30;99.90;;;;;;5075045;28;20174;-45
2023/01/20 08:33:43;;;;;;;25.30;13.00;;;2.40;99.90;;;;;;5074618;28;20222;-45
2023/01/20 08:36:12;;;;;;;20.00;12.18;;;2.40;99.90;;;;;;5074419;28;20173;-46
2023/01/20 08:38:39;;;;;;;20.10;11.65;;;2.50;99.90;;;;;;5074257;28;20249;-45
2023/01/20 08:41:17;;;;;;;18.52;11.07;;;2.40;99.90;;;;;;5074306;28;20209;-45
2023/01/20 08:43:42;;;;;;;18.98;10.73;;;2.40;99.90;;;;;;5074727;28;20166;-45
2023/01/20 08:46:11;;;;;;;19.55;9.63;;;2.30;99.90;;;;;;5074656;28;20188;-45
2023/01/20 08:48:40;;;;;;;15.20;9.25;;;2.20;99.90;;;;;;5074429;28;20185;-45
2023/01/20 08:51:15;;;;;;;18.48;10.23;;;2.40;99.90;;;;;;5067661;28;20162;-45
2023/01/20 08:53:41;;;;;;;17.50;10.20;;;2.30;99.90;;;;;;5054211;28;20249;-45
2023/01/20 08:56:07;;;;;;;21.70;11.45;;;2.40;99.90;;;;;;5054242;28;20245;-45
2023/01/20 08:58:33;;;;;;;15.35;9.30;;;2.40;99.90;;;;;;5054112;28;20206;-45
2023/01/20 09:00:59;;;;;;;19.65;10.57;;;2.50;99.90;;;;;;5054851;28;20212;-46
2023/01/20 09:03:26;;;;;;;17.50;10.48;;;2.50;99.90;;;;;;5053963;28;20210;-45
2023/01/20 09:05:52;;;;;;;17.17;10.52;;;2.70;99.90;;;;;;5054047;28;20159;-45
2023/01/20 09:08:18;;;;;;;18.63;8.80;;;2.80;99.90;;;;;;5054029;28;20235;-46
2023/01/20 09:10:45;;;;;;;18.15;10.23;;;2.80;99.90;;;;;;5054150;28;20175;-45
2023/01/20 09:13:11;;;;;;;13.95;9.43;;;2.90;99.90;;;;;;5053460;28;20531;-45
2023/01/20 09:15:36;;;;;;;14.57;9.68;;;2.90;99.90;;;;;;5053827;28;20174;-45
2023/01/20 09:18:02;;;;;;;17.48;10.82;;;2.90;99.90;;;;;;5054098;28;20202;-47
2023/01/20 09:20:29;;;;;;;14.85;9.95;;;2.90;99.90;;;;;;5057690;28;20166;-46
2023/01/20 09:22:55;;;;;;;16.92;9.00;;;3.00;99.90;;;;;;5074019;28;20178;-45
2023/01/20 09:25:21;;;;;;;14.45;8.68;;;2.90;99.90;;;;;;5073701;28;20592;-45
2023/01/20 09:27:46;;;;;;;22.42;9.48;;;2.90;99.90;;;;;;5073765;28;20390;-46
2023/01/20 09:30:12;;;;;;;16.38;8.45;;;3.10;99.90;;;;;;5073331;28;20174;-45
2023/01/20 09:32:37;;;;;;;11.73;8.23;;;3.10;99.90;;;;;;5073677;28;20178;-46
2023/01/20 09:35:04;;;;;;;12.68;7.22;;;3.00;99.90;;;;;;5073683;28;20204;-45
2023/01/20 09:43:53;;;;;;;11.93;7.28;;;3.20;99.90;;;;;;5073521;28;20232;-46
2023/01/20 09:47:18;;;;;;;13.43;7.95;;;3.10;99.90;;;;;;5072453;28;20228;-46
2023/01/20 09:53:04;;;;;;;22.52;11.90;;;3.20;99.90;;;;;;5035328;28;20696;-45
2023/01/20 09:55:41;;;;;;;17.08;8.38;;;3.20;99.90;;;;;;5053335;28;20631;-45
2023/01/20 09:58:49;;;;;;;13.20;6.97;;;3.10;99.90;;;;;;5051795;28;20201;-45
2023/01/20 10:01:39;;;;;;;17.35;9.32;;;3.10;99.90;;;;;;5053083;28;20171;-45
2023/01/20 10:04:08;;;;;;;12.30;7.55;;;3.10;99.90;;;;;;5052877;28;20219;-45
2023/01/20 10:06:41;;;;;;;26.85;12.35;;;3.00;99.90;;;;;;5052834;28;20174;-45
2023/01/20 10:09:30;;;;;;;27.83;12.00;;;3.10;99.90;;;;;;5052768;28;20171;-45
2023/01/20 10:12:33;;;;;;;13.07;6.28;;;3.20;99.90;;;;;;5052700;28;20173;-45
2023/01/20 10:15:14;;;;;;;23.08;9.82;;;3.20;99.90;;;;;;5053097;28;20162;-45
2023/01/20 10:18:02;;;;;;;8.55;5.47;;;3.30;99.90;;;;;;5052580;28;20210;-45
2023/01/20 10:20:40;;;;;;;14.52;5.95;;;3.40;99.90;;;;;;5054317;28;20166;-45
2023/01/20 10:23:13;;;;;;;12.88;6.40;;;3.30;99.90;;;;;;5051884;28;20273;-45
2023/01/20 10:25:54;;;;;;;8.15;5.97;;;3.20;99.90;;;;;;5052460;28;20213;-45
2023/01/20 10:28:28;;;;;;;9.52;5.70;;;3.20;99.90;;;;;;5052912;28;20227;-46
2023/01/20 10:31:00;;;;;;;11.85;6.05;;;3.20;99.90;;;;;;5052717;28;20237;-45
2023/01/20 10:33:43;;;;;;;8.98;6.10;;;3.30;99.90;;;;;;5052647;28;20181;-46
2023/01/20 10:36:22;;;;;;;16.92;7.72;;;3.30;99.90;;;;;;5052406;28;20162;-45
2023/01/20 10:39:23;;;;;;;12.43;6.10;;;3.30;99.90;;;;;;5052477;28;20609;-45
2023/01/20 10:41:55;;;;;;;13.68;7.03;;;3.30;99.90;;;;;;5052209;28;20170;-45
2023/01/20 10:44:21;;;;;;;9.50;6.30;;;3.30;99.90;;;;;;5052151;28;20645;-45
2023/01/20 10:46:56;;;;;;;15.77;7.97;;;3.30;99.90;;;;;;5052111;28;20170;-45
2023/01/20 10:50:00;;;;;;;9.40;5.88;;;3.20;99.90;;;;;;5052230;28;20178;-45
2023/01/20 10:52:37;;;;;;;10.73;6.13;;;3.10;99.90;;;;;;5020580;28;20175;-45
2023/01/20 10:55:26;;;;;;;11.68;6.40;;;3.10;99.90;;;;;;5052007;28;20262;-45
2023/01/20 10:58:11;;;;;;;9.75;6.43;;;3.20;99.90;;;;;;5051909;28;20766;-45
2023/01/20 11:00:38;;;;;;;10.35;6.38;;;3.20;99.90;;;;;;5052021;28;20166;-45
2023/01/20 11:03:09;;;;;;;18.77;9.57;;;3.30;99.90;;;;;;5051680;28;20232;-45
2023/01/20 11:05:37;;;;;;;15.52;8.15;;;3.40;99.90;;;;;;5051833;28;20649;-45
2023/01/20 11:08:15;;;;;;;10.80;6.85;;;3.20;99.90;;;;;;5051789;28;20174;-45
2023/01/20 11:10:41;;;;;;;32.80;22.98;;;3.20;99.90;;;;;;5052026;28;20269;-46
2023/01/20 11:13:10;;;;;;;16.88;9.18;;;3.30;99.90;;;;;;5051710;28;20261;-46
2023/01/20 11:15:40;;;;;;;25.05;16.05;;;3.30;99.90;;;;;;5051432;28;20201;-45
2023/01/20 11:18:15;;;;;;;18.85;9.80;;;3.30;99.90;;;;;;5051528;28;20674;-45
2023/01/20 11:20:50;;;;;;;10.10;6.25;;;3.20;99.90;;;;;;5056244;28;20587;-45
2023/01/20 11:23:37;;;;;;;26.15;16.38;;;3.20;99.90;;;;;;5056885;28;20216;-46
2023/01/20 11:26:18;;;;;;;10.45;7.47;;;3.30;99.90;;;;;;5055341;28;20170;-45
2023/01/20 11:28:57;;;;;;;11.63;7.55;;;3.40;99.90;;;;;;5061615;28;20202;-45
2023/01/20 11:31:50;;;;;;;13.77;6.30;;;3.40;99.90;;;;;;5059698;28;20170;-45
2023/01/20 11:34:28;;;;;;;9.65;5.90;;;3.40;99.90;;;;;;5063461;28;20159;-45
2023/01/20 11:37:05;;;;;;;11.73;6.53;;;3.20;99.90;;;;;;5059328;28;20202;-45
2023/01/20 11:39:56;;;;;;;10.75;6.80;;;3.10;99.90;;;;;;5065478;28;20174;-45
2023/01/20 11:42:39;;;;;;;14.85;8.90;;;3.00;99.90;;;;;;5059394;28;20261;-45
2023/01/20 11:45:31;;;;;;;12.45;7.55;;;3.10;99.90;;;;;;5055080;28;20170;-45
2023/01/20 11:48:05;;;;;;;9.68;5.95;;;3.20;99.90;;;;;;5058951;28;20261;-45
2023/01/20 11:50:34;;;;;;;10.82;7.70;;;3.20;99.90;;;;;;5055375;28;20622;-45
2023/01/20 11:53:15;;;;;;;16.02;8.15;;;3.20;99.90;;;;;;5069709;28;20585;-45
2023/01/20 11:55:47;;;;;;;16.73;8.13;;;3.20;99.90;;;;;;5057926;28;20174;-45
2023/01/20 11:58:18;;;;;;;18.25;8.60;;;3.20;99.90;;;;;;5061074;28;20541;-45
2023/01/20 12:00:44;;;;;;;13.75;8.25;;;3.10;99.90;;;;;;5050977;28;20186;-45
2023/01/20 12:03:09;;;;;;;13.43;7.65;;;3.10;99.90;;;;;;5050905;28;20210;-45
2023/01/20 12:05:42;;;;;;;13.18;7.82;;;3.00;99.90;;;;;;5050872;28;20158;-45
2023/01/20 12:08:40;;;;;;;27.27;11.20;;;3.00;99.90;;;;;;5051066;28;20167;-46
2023/01/20 12:11:07;;;;;;;19.48;10.65;;;2.90;99.90;;;;;;5051153;28;20197;-45
2023/01/20 12:16:43;;;;;;;9.98;5.70;;;2.80;99.90;;;;;;5050775;28;20174;-45
2023/01/20 12:19:15;;;;;;;6.82;3.85;;;2.70;99.90;;;;;;5050750;28;20209;-45
2023/01/20 12:21:46;;;;;;;8.82;4.65;;;2.70;99.90;;;;;;5050766;28;20167;-45
2023/01/20 12:25:06;;;;;;;8.98;6.05;;;2.70;99.90;;;;;;5050637;28;20619;-45
2023/01/20 12:27:24;;;;;;;8.98;5.05;;;2.50;99.90;;;;;;5049810;28;20170;-45
2023/01/20 12:29:54;;;;;;;8.95;5.32;;;2.50;99.90;;;;;;5060932;28;20174;-45
2023/01/20 12:32:20;;;;;;;7.80;3.92;;;2.60;99.90;;;;;;5070499;28;20166;-45
2023/01/20 12:34:46;;;;;;;7.70;6.15;;;2.50;99.90;;;;;;5070160;28;20174;-45
2023/01/20 12:37:22;;;;;;;14.73;6.88;;;2.50;99.90;;;;;;5057832;28;20207;-46
2023/01/20 12:40:21;;;;;;;5.43;4.20;;;2.30;99.90;;;;;;5050293;28;20174;-45
2023/01/20 12:43:24;;;;;;;8.30;5.53;;;2.40;99.90;;;;;;5050614;28;20330;-46
2023/01/20 12:46:16;;;;;;;11.13;6.18;;;2.40;99.90;;;;;;5050345;28;20695;-46
2023/01/20 12:48:50;;;;;;;6.70;4.28;;;2.30;99.90;;;;;;5053958;28;20163;-45
2023/01/20 12:51:35;;;;;;;6.50;4.18;;;2.30;99.90;;;;;;5054102;28;20162;-45
2023/01/20 12:54:31;;;;;;;12.00;5.82;;;2.20;99.90;;;;;;5054404;28;20170;-46
2023/01/20 12:57:03;;;;;;;8.43;5.28;;;2.10;99.90;;;;;;5057657;28;20666;-45
2023/01/20 13:00:12;;;;;;;9.45;4.53;;;2.10;99.90;;;;;;5065232;28;20201;-46
2023/01/20 13:02:48;;;;;;;6.10;4.50;;;2.30;99.90;;;;;;5053791;28;20166;-47
2023/01/20 13:05:33;;;;;;;5.55;4.22;;;2.50;99.90;;;;;;5069279;28;20273;-47
2023/01/20 13:08:23;;;;;;;6.63;4.20;;;2.30;99.90;;;;;;5054458;28;20176;-47
2023/01/20 13:11:14;;;;;;;19.55;9.93;;;2.30;99.90;;;;;;5053711;28;20170;-46
2023/01/20 13:14:16;;;;;;;10.63;4.82;;;2.50;99.90;;;;;;5053867;28;20171;-47
2023/01/20 13:16:57;;;;;;;15.10;9.68;;;2.30;99.90;;;;;;5053704;28;20574;-47
2023/01/20 13:19:32;;;;;;;6.78;3.95;;;2.30;99.90;;;;;;5053549;28;20216;-45